createdAt,value
2023-10-26T04:17:16.465Z,13.75
2023-10-26T04:20:30.843Z,13.76
2023-10-26T04:23:45.050Z,13.71
2023-10-26T04:26:59.349Z,13.68
2023-10-26T04:30:14.055Z,13.80
2023-10-26T04:33:29.795Z,13.92
2023-10-26T04:36:44.038Z,13.94
2023-10-26T04:39:58.979Z,13.92
2023-10-26T04:43:14.151Z,13.82
2023-10-26T04:46:28.517Z,13.78
2023-10-26T04:49:44.210Z,13.93
2023-10-26T04:52:58.346Z,13.98
2023-10-26T04:56:13.003Z,13.90
2023-10-26T04:59:27.254Z,13.76
2023-10-26T05:02:42.968Z,13.88
2023-10-26T05:05:58.839Z,13.80
2023-10-26T05:09:13.165Z,13.90
2023-10-26T05:12:27.400Z,13.96
2023-10-26T05:15:41.565Z,13.92
2023-10-26T05:18:55.836Z,13.84
2023-10-26T05:22:11.520Z,13.87
2023-10-26T05:25:25.687Z,14.03
2023-10-26T05:28:40.117Z,13.87
2023-10-26T05:31:54.680Z,13.96
2023-10-26T05:35:09.270Z,14.08
2023-10-26T05:38:31.885Z,14.09
2023-10-26T05:41:46.231Z,14.10
2023-10-26T05:45:06.607Z,14.20
2023-10-26T05:49:05.551Z,14.09
2023-10-26T05:52:20.518Z,14.30
2023-10-26T05:55:36.666Z,14.25
2023-10-26T05:58:51.689Z,14.24
2023-10-26T06:02:13.528Z,14.44
2023-10-26T06:05:34.411Z,14.41
2023-10-26T06:08:51.283Z,14.39
2023-10-26T06:12:09.471Z,14.43
2023-10-26T06:15:32.469Z,14.73
2023-10-26T06:18:47.151Z,14.72
2023-10-26T06:22:02.081Z,14.79
2023-10-26T06:25:18.936Z,14.91
2023-10-26T06:28:39.085Z,14.79
2023-10-26T06:31:55.386Z,14.78
2023-10-26T06:35:40.423Z,14.97
2023-10-26T06:39:14.480Z,15.15
2023-10-26T06:42:30.751Z,14.76
2023-10-26T06:45:57.261Z,14.84
2023-10-26T06:49:29.109Z,14.76
2023-10-26T06:52:58.341Z,14.64
2023-10-26T06:56:13.959Z,14.71
2023-10-26T06:59:28.690Z,14.63
2023-10-26T07:02:47.183Z,14.85
2023-10-26T07:06:05.229Z,14.74
2023-10-26T07:09:21.063Z,14.73
2023-10-26T07:12:56.322Z,14.84
2023-10-26T07:16:14.973Z,14.72
2023-10-26T07:19:36.425Z,15.05
2023-10-26T07:22:53.676Z,15.04
2023-10-26T07:26:11.538Z,14.92
2023-10-26T07:29:28.981Z,14.87
2023-10-26T07:33:03.342Z,14.90
2023-10-26T07:36:32.049Z,15.00
2023-10-26T07:39:49.015Z,15.13
2023-10-26T07:43:08.411Z,15.07
2023-10-26T07:46:24.789Z,14.74
2023-10-26T07:49:40.431Z,14.98
2023-10-26T07:53:00.496Z,15.06
2023-10-26T07:56:15.587Z,14.99
2023-10-26T07:59:36.072Z,15.13
2023-10-26T08:02:53.844Z,14.99
2023-10-26T08:06:13.809Z,14.78
2023-10-26T08:09:48.293Z,15.25
2023-10-26T08:13:02.907Z,15.17
2023-10-26T08:16:44.034Z,15.26
2023-10-26T08:19:58.457Z,15.15
2023-10-26T08:23:13.772Z,15.22
2023-10-26T08:26:33.114Z,15.14
2023-10-26T08:29:51.332Z,15.26
2023-10-26T08:33:07.789Z,15.29
2023-10-26T08:36:22.415Z,15.05
2023-10-26T08:39:46.817Z,15.45
2023-10-26T08:43:26.155Z,15.27
2023-10-26T08:47:06.897Z,15.47
2023-10-26T08:50:43.298Z,15.21
2023-10-26T08:54:08.721Z,15.58
2023-10-26T08:57:36.579Z,15.44
2023-10-26T09:06:05.754Z,15.67
2023-10-26T09:10:22.726Z,15.76
2023-10-26T09:13:39.463Z,15.25
2023-10-26T09:16:56.410Z,15.39
2023-10-26T09:20:22.882Z,15.38
2023-10-26T09:23:38.621Z,15.26
2023-10-26T09:26:58.748Z,15.82
2023-10-26T09:30:28.012Z,15.99
2023-10-26T09:33:48.384Z,15.81
2023-10-26T09:37:04.159Z,16.03
2023-10-26T09:40:18.527Z,16.27
2023-10-26T09:43:35.272Z,15.96
2023-10-26T09:46:51.820Z,16.22
2023-10-26T09:50:11.784Z,16.36
2023-10-26T09:53:29.364Z,16.39
2023-10-26T09:56:49.284Z,16.68
2023-10-26T10:00:10.918Z,16.58
2023-10-26T10:03:47.558Z,16.59
2023-10-26T10:07:08.230Z,16.98
2023-10-26T10:10:39.399Z,16.94
2023-10-26T10:13:58.886Z,16.94
2023-10-26T10:17:14.550Z,17.12
2023-10-26T10:20:38.557Z,16.70
2023-10-26T10:23:59.426Z,16.79
2023-10-26T10:27:14.398Z,16.98
2023-10-26T10:30:52.785Z,17.32
2023-10-26T10:34:15.852Z,17.04
2023-10-26T10:37:30.660Z,17.25
2023-10-26T10:41:42.196Z,17.54
2023-10-26T10:49:28.089Z,17.81
2023-10-26T10:52:43.641Z,17.60
2023-10-26T10:55:59.538Z,17.60
2023-10-26T10:59:23.224Z,17.50
2023-10-26T11:02:37.517Z,17.92
2023-10-26T11:05:51.755Z,17.96
2023-10-26T11:09:06.603Z,17.99
2023-10-26T11:12:20.788Z,17.94
2023-10-26T11:15:36.716Z,18.14
2023-10-26T11:18:50.918Z,17.91
2023-10-26T11:22:05.558Z,17.61
2023-10-26T11:25:30.119Z,18.33
2023-10-26T11:28:44.606Z,18.88
2023-10-26T11:32:00.720Z,18.84
2023-10-26T11:35:16.420Z,18.87
2023-10-26T11:38:32.433Z,19.31
2023-10-26T11:41:54.032Z,20.29
2023-10-26T11:45:13.682Z,20.80
2023-10-26T11:48:34.642Z,21.17
2023-10-26T11:51:54.317Z,21.29
2023-10-26T11:55:15.967Z,21.64
2023-10-26T11:58:30.098Z,20.44
2023-10-26T12:01:57.021Z,20.23
2023-10-26T12:13:03.571Z,21.08
2023-10-26T12:16:17.824Z,20.23
2023-10-26T12:19:32.941Z,20.12
2023-10-26T12:22:49.982Z,19.29
2023-10-26T12:26:05.751Z,19.44
2023-10-26T12:29:26.222Z,19.89
2023-10-26T12:32:40.475Z,20.35
2023-10-26T12:35:54.754Z,20.87
2023-10-26T12:39:09.052Z,20.98
2023-10-26T12:42:26.004Z,21.86
2023-10-26T12:45:40.707Z,21.17
2023-10-26T12:48:55.004Z,21.06
2023-10-26T12:52:09.391Z,20.49
2023-10-26T12:55:25.169Z,19.80
2023-10-26T12:58:40.918Z,19.83
2023-10-26T13:01:55.065Z,20.16
2023-10-26T13:05:17.435Z,19.96
2023-10-26T13:08:31.698Z,19.52
2023-10-26T13:11:45.976Z,19.52
2023-10-26T13:15:04.569Z,19.52
2023-10-26T13:18:22.253Z,19.23
2023-10-26T13:21:50.760Z,19.33
2023-10-26T13:41:43.508Z,19.39
2023-10-26T13:49:49.593Z,19.55
2023-10-26T13:53:04.005Z,19.39
2023-10-26T13:56:18.259Z,19.22
2023-10-26T13:59:49.557Z,19.23
2023-10-26T14:07:14.870Z,18.99
2023-10-26T14:10:30.810Z,19.12
2023-10-26T14:13:45.241Z,19.29
2023-10-26T14:17:02.197Z,19.11
2023-10-26T14:52:57.528Z,18.13
2023-10-26T14:56:11.797Z,18.17
2023-10-26T14:59:49.190Z,17.91
